Ivai, Brazil
Current Conditions -  °F | °C
As of 12:00 PM on Tuesday 27 Jan 2015 (Local Time) from SBBI Reporting Station
Scattered Clouds Scattered Clouds  
Wind Chill: 79°   Ceiling: Unl
Heat Index: 81°   Visibility: 6mi
Dew Point: 64°   Wind: 14mph
Humidity: 61%   Direction: 350°N
Pressure: 30.09"   Gusts: NA
Location:  25.03°S, 50.8°W
Report Text: SBBI 271400Z 35012KT 9999 SCT030 FEW040TCU 26/18 Q1019
Loading
Personal Weather Stations






























Interactive Weather Map New forecast layout! Learn more

10-Day Weather Forecast

Advertisements
Track Severe Weather on mobile